Time;durP1;ratioP1;P1;durP2;ratioP2;P2;SDS_P1;SDS_P2;PMS_P1;PMS_P2;Temp;Humidity;BMP_temperature;BMP_pressure;BME280_temperature;BME280_humidity;BME280_pressure;Samples;Min_cycle;Max_cycle;Signal;HPM_P1;HPM_P2
2022/09/06 00:01:43;;;;;;;0.08;0.08;;;;;;;21.20;65.81;101627.47;5037729;28;20060;-75
2022/09/06 00:04:10;;;;;;;0.10;0.10;;;;;;;21.23;66.18;101630.00;5041469;28;20021;-74
2022/09/06 00:06:36;;;;;;;0.10;0.10;;;;;;;21.27;65.75;101634.31;5037926;27;20108;-75
2022/09/06 00:09:02;;;;;;;0.00;0.00;;;;;;;21.31;65.81;101646.66;5038584;28;20026;-74
2022/09/06 00:11:29;;;;;;;0.10;0.10;;;;;;;21.33;65.58;101651.94;5037285;28;20025;-74
2022/09/06 00:13:55;;;;;;;0.10;0.10;;;;;;;21.38;65.42;101649.03;5039083;28;20025;-75
2022/09/06 00:16:23;;;;;;;0.00;0.00;;;;;;;21.39;65.16;101661.56;5034801;28;20026;-74
2022/09/06 00:18:53;;;;;;;0.00;0.00;;;;;;;21.41;65.31;101671.31;5033699;28;20029;-75
2022/09/06 00:21:28;;;;;;;0.20;0.20;;;;;;;21.46;64.91;101671.06;5029304;28;20036;-74
2022/09/06 00:23:55;;;;;;;0.50;0.50;;;;;;;21.45;65.07;101688.19;5036483;28;20021;-74
2022/09/06 00:26:22;;;;;;;0.20;0.20;;;;;;;21.33;63.78;101690.56;5034450;28;20487;-74
2022/09/06 00:28:48;;;;;;;0.00;0.00;;;;;;;21.41;62.89;101691.97;5038629;28;20116;-75
2022/09/06 00:31:18;;;;;;;0.13;0.13;;;;;;;21.44;63.07;101698.09;5030150;28;20030;-74
2022/09/06 00:33:44;;;;;;;0.77;0.77;;;;;;;21.45;63.01;101704.38;5028520;28;20112;-75
2022/09/06 00:36:12;;;;;;;0.03;0.03;;;;;;;21.46;63.26;101706.13;5032263;28;20499;-74
2022/09/06 00:38:38;;;;;;;1.25;0.40;;;;;;;21.43;62.93;101715.25;5031687;28;20094;-74
2022/09/06 00:41:07;;;;;;;0.00;0.00;;;;;;;21.45;62.74;101715.16;5033474;28;20062;-75
2022/09/06 00:43:33;;;;;;;0.10;0.10;;;;;;;21.45;62.49;101718.72;5032541;27;20041;-75
2022/09/06 00:46:01;;;;;;;0.20;0.20;;;;;;;21.45;62.52;101720.53;5037651;28;20096;-75
2022/09/06 00:48:27;;;;;;;0.00;0.00;;;;;;;21.45;62.42;101726.78;5030707;28;20033;-75
2022/09/06 00:50:59;;;;;;;0.43;0.43;;;;;;;21.52;62.51;101731.88;5026975;28;20037;-75
2022/09/06 00:53:25;;;;;;;0.10;0.10;;;;;;;21.49;62.58;101735.59;5028522;28;20021;-75
2022/09/06 00:55:52;;;;;;;0.10;0.10;;;;;;;21.50;62.75;101729.25;5032103;28;20059;-75
2022/09/06 00:58:19;;;;;;;0.00;0.00;;;;;;;21.52;62.91;101732.75;5032645;28;20486;-75
2022/09/06 01:00:45;;;;;;;0.00;0.00;;;;;;;21.50;63.35;101730.13;5034548;28;20028;-74
2022/09/06 01:03:12;;;;;;;0.15;0.15;;;;;;;21.52;63.30;101724.66;5031772;28;20035;-74
2022/09/06 01:11:39;;;;;;;0.30;0.30;;;;;;;21.54;63.56;101682.31;5047118;28;20806;-76
2022/09/06 01:14:23;;;;;;;0.00;0.00;;;;;;;21.51;63.65;101674.38;5043898;28;20029;-76
2022/09/06 01:30:24;;;;;;;0.00;0.00;;;;;;;21.32;64.35;101618.75;5083026;28;20429;-75
2022/09/06 01:35:52;;;;;;;0.10;0.10;;;;;;;21.29;64.19;101594.63;5001617;28;20394;-74
2022/09/06 01:38:18;;;;;;;0.08;0.08;;;;;;;21.21;64.38;101583.41;4989759;28;20038;-73
2022/09/06 01:40:44;;;;;;;0.10;0.10;;;;;;;21.18;64.72;101578.16;4986228;28;20114;-73
2022/09/06 01:43:13;;;;;;;0.00;0.00;;;;;;;21.14;64.46;101565.81;4997913;28;20032;-73
2022/09/06 01:49:18;;;;;;;0.00;0.00;;;;;;;21.09;64.20;101546.34;5071836;27;20918;-74
2022/09/06 01:54:39;;;;;;;0.38;0.38;;;;;;;20.87;65.10;101538.53;5062710;28;20403;-74
2022/09/06 01:57:34;;;;;;;0.03;0.03;;;;;;;20.84;65.18;101531.47;5048107;28;20048;-75
2022/09/06 02:00:08;;;;;;;0.10;0.10;;;;;;;20.74;65.15;101535.59;5041677;28;20036;-75
2022/09/06 02:03:14;;;;;;;0.00;0.00;;;;;;;20.69;64.93;101533.97;5047454;28;20017;-75
2022/09/06 02:05:53;;;;;;;0.00;0.00;;;;;;;20.64;65.69;101536.03;5049428;28;20046;-75
2022/09/06 02:08:26;;;;;;;0.10;0.10;;;;;;;20.58;65.83;101533.66;5063671;28;20510;-74
2022/09/06 02:10:58;;;;;;;0.10;0.10;;;;;;;20.56;66.04;101538.25;5048284;28;20036;-74
2022/09/06 02:13:29;;;;;;;0.10;0.10;;;;;;;20.55;65.80;101538.31;5047934;28;20044;-75
2022/09/06 02:16:00;;;;;;;1.55;0.45;;;;;;;20.49;66.37;101542.22;5053045;28;20037;-75
2022/09/06 02:19:06;;;;;;;0.10;0.10;;;;;;;20.62;65.73;101546.03;5048910;28;20041;-75
2022/09/06 02:21:38;;;;;;;0.03;0.03;;;;;;;20.58;65.66;101552.50;5057154;28;20115;-75
2022/09/06 02:24:09;;;;;;;0.10;0.10;;;;;;;20.57;66.04;101541.81;5046274;28;20490;-75
2022/09/06 02:26:39;;;;;;;0.20;0.20;;;;;;;20.56;66.02;101548.16;5048011;28;20044;-76
2022/09/06 02:29:05;;;;;;;0.10;0.10;;;;;;;20.58;66.04;101549.81;5060493;28;20032;-75
2022/09/06 02:31:36;;;;;;;0.00;0.00;;;;;;;20.58;66.47;101557.03;5045350;28;20079;-76
2022/09/06 02:34:03;;;;;;;0.10;0.10;;;;;;;20.57;66.47;101553.44;5051383;28;20106;-76
2022/09/06 02:36:31;;;;;;;0.10;0.10;;;;;;;20.60;66.05;101556.00;5058106;28;20029;-75
2022/09/06 02:39:00;;;;;;;0.00;0.00;;;;;;;20.60;66.57;101556.00;5051860;28;20056;-76
2022/09/06 02:41:28;;;;;;;0.00;0.00;;;;;;;20.62;66.70;101567.56;5046507;28;20402;-75
2022/09/06 02:43:54;;;;;;;1.35;0.90;;;;;;;20.58;66.86;101562.41;5051781;28;20079;-76
2022/09/06 02:46:22;;;;;;;0.10;0.10;;;;;;;20.59;66.77;101559.63;5051305;28;20583;-76
2022/09/06 02:48:48;;;;;;;0.10;0.10;;;;;;;20.60;66.55;101566.75;5055675;28;20697;-76
2022/09/06 02:51:15;;;;;;;0.10;0.10;;;;;;;20.67;66.44;101561.91;5055468;28;20045;-74
2022/09/06 02:53:41;;;;;;;0.03;0.03;;;;;;;20.73;66.15;101560.78;5061609;28;20525;-75
2022/09/06 02:56:07;;;;;;;0.20;0.20;;;;;;;20.75;66.20;101572.31;5062202;28;20506;-74
2022/09/06 02:58:33;;;;;;;0.00;0.00;;;;;;;20.77;66.60;101571.31;5055960;28;20021;-75
2022/09/06 03:01:00;;;;;;;0.15;0.15;;;;;;;20.79;66.66;101565.84;5053695;28;20037;-75
2022/09/06 03:03:26;;;;;;;0.00;0.00;;;;;;;20.82;66.11;101568.38;5056262;28;20032;-74
2022/09/06 03:05:54;;;;;;;0.10;0.10;;;;;;;20.85;66.23;101561.00;5050742;28;20132;-75
2022/09/06 03:08:24;;;;;;;0.10;0.10;;;;;;;20.90;65.80;101573.34;5046298;28;20032;-75
2022/09/06 03:10:54;;;;;;;0.05;0.05;;;;;;;20.96;65.96;101576.63;5039637;28;20033;-75
2022/09/06 03:13:22;;;;;;;0.10;0.10;;;;;;;20.98;66.01;101585.47;5042139;28;20033;-75
2022/09/06 03:15:52;;;;;;;0.00;0.00;;;;;;;21.01;65.70;101595.25;5046180;28;20120;-75
2022/09/06 03:18:18;;;;;;;0.10;0.10;;;;;;;21.02;65.66;101602.34;5032931;28;20025;-75
2022/09/06 03:20:44;;;;;;;0.10;0.10;;;;;;;21.03;65.50;101609.50;5032026;28;20029;-75
2022/09/06 03:23:10;;;;;;;0.00;0.00;;;;;;;21.05;65.54;101598.63;5047629;28;20026;-75
2022/09/06 03:25:36;;;;;;;0.32;0.32;;;;;;;21.04;65.90;101596.91;5033601;28;20033;-75
2022/09/06 03:28:03;;;;;;;0.10;0.10;;;;;;;21.02;65.73;101607.75;5028999;28;20029;-75
2022/09/06 03:30:29;;;;;;;0.10;0.10;;;;;;;21.03;65.76;101611.31;5031596;28;20036;-74
2022/09/06 03:32:55;;;;;;;0.13;0.13;;;;;;;21.03;65.77;101612.19;5041170;28;20402;-74
2022/09/06 03:35:21;;;;;;;0.10;0.10;;;;;;;21.06;65.79;101613.84;5043833;28;20429;-74
2022/09/06 03:37:47;;;;;;;0.00;0.00;;;;;;;21.06;65.88;101614.72;5036934;28;20036;-74
2022/09/06 03:40:14;;;;;;;0.38;0.38;;;;;;;21.07;66.09;101621.88;5043079;28;20070;-74
2022/09/06 03:42:40;;;;;;;0.00;0.00;;;;;;;21.06;65.65;101621.94;5034928;28;20511;-75
2022/09/06 03:45:06;;;;;;;0.82;0.50;;;;;;;21.05;65.64;101622.88;5033775;28;20033;-74
2022/09/06 03:47:33;;;;;;;0.10;0.10;;;;;;;21.04;65.79;101634.63;5035441;28;20116;-75
2022/09/06 03:50:01;;;;;;;0.10;0.10;;;;;;;21.04;65.44;101632.78;5040603;28;20033;-74
2022/09/06 03:52:27;;;;;;;0.00;0.00;;;;;;;21.05;65.43;101630.94;5038867;28;20461;-74
2022/09/06 03:54:53;;;;;;;0.10;0.10;;;;;;;21.05;65.13;101636.34;5038676;28;20376;-75
2022/09/06 03:57:19;;;;;;;0.10;0.10;;;;;;;21.03;65.38;101639.13;5042496;28;20045;-74
2022/09/06 03:59:45;;;;;;;0.43;0.43;;;;;;;21.01;65.51;101650.00;5030529;28;20545;-75
2022/09/06 04:02:11;;;;;;;0.10;0.10;;;;;;;20.99;65.45;101635.72;5039785;28;20037;-74
2022/09/06 04:04:38;;;;;;;0.85;0.65;;;;;;;21.00;65.29;101632.06;5037078;28;20395;-74
2022/09/06 04:07:04;;;;;;;0.32;0.32;;;;;;;21.00;65.20;101613.22;5036249;28;20029;-74
2022/09/06 04:09:30;;;;;;;0.10;0.10;;;;;;;21.01;65.17;101617.66;5037354;28;20025;-74
2022/09/06 04:11:56;;;;;;;0.10;0.10;;;;;;;21.04;65.32;101613.06;5038570;28;20989;-73
2022/09/06 04:14:22;;;;;;;0.10;0.10;;;;;;;21.04;65.14;101619.31;5038408;28;20037;-74
2022/09/06 04:16:49;;;;;;;0.10;0.10;;;;;;;21.04;65.13;101621.16;5037065;28;20040;-73
2022/09/06 04:19:15;;;;;;;0.38;0.38;;;;;;;21.03;65.37;101622.97;5040643;28;20033;-73
2022/09/06 04:21:41;;;;;;;0.10;0.10;;;;;;;21.02;65.40;101626.59;5033513;28;20402;-74
2022/09/06 04:24:07;;;;;;;0.10;0.10;;;;;;;21.03;65.16;101635.56;5034169;28;20022;-74
2022/09/06 04:26:34;;;;;;;0.25;0.25;;;;;;;21.00;65.07;101640.16;5039888;28;20052;-74
2022/09/06 04:29:00;;;;;;;0.10;0.10;;;;;;;21.01;65.09;101633.81;5036877;28;20071;-74
2022/09/06 04:31:26;;;;;;;0.10;0.10;;;;;;;21.01;65.03;101639.22;5037121;28;20032;-74
2022/09/06 04:33:52;;;;;;;0.10;0.10;;;;;;;21.01;65.56;101646.44;5038411;28;20049;-74
2022/09/06 04:36:18;;;;;;;0.10;0.10;;;;;;;21.05;65.25;101645.31;5040665;28;20025;-74
2022/09/06 04:38:44;;;;;;;0.10;0.10;;;;;;;21.01;65.48;101641.03;5041892;28;20052;-74
2022/09/06 04:41:12;;;;;;;0.10;0.10;;;;;;;20.95;65.79;101642.22;5042065;28;20028;-74
2022/09/06 04:43:39;;;;;;;0.20;0.20;;;;;;;20.95;65.52;101642.22;5039859;28;20100;-74
2022/09/06 04:48:41;;;;;;;0.10;0.10;;;;;;;21.01;65.25;101641.03;5062251;28;20477;-74
2022/09/06 04:51:07;;;;;;;0.25;0.25;;;;;;;21.05;64.91;101647.13;5044916;28;20478;-74
2022/09/06 04:53:33;;;;;;;0.10;0.10;;;;;;;21.08;64.82;101650.53;5045848;28;20095;-74
2022/09/06 04:55:59;;;;;;;0.10;0.10;;;;;;;21.10;64.78;101645.09;5038813;28;20034;-74
2022/09/06 04:58:29;;;;;;;0.10;0.10;;;;;;;21.14;64.82;101647.53;5043545;28;20049;-74
2022/09/06 05:00:55;;;;;;;0.10;0.10;;;;;;;21.13;64.77;101647.59;5040185;28;20048;-74
2022/09/06 05:03:22;;;;;;;0.10;0.10;;;;;;;21.08;65.35;101644.28;5044432;28;20024;-73
2022/09/06 05:05:48;;;;;;;0.10;0.10;;;;;;;21.08;64.92;101633.50;5039005;28;20029;-76
2022/09/06 05:08:14;;;;;;;0.00;0.00;;;;;;;21.05;64.99;101625.56;5041812;28;20521;-76
2022/09/06 05:10:40;;;;;;;0.05;0.05;;;;;;;21.04;64.86;101626.53;5039625;28;20013;-77
2022/09/06 05:13:06;;;;;;;0.10;0.10;;;;;;;21.00;64.79;101636.59;5047358;28;20382;-76
2022/09/06 05:15:32;;;;;;;0.10;0.10;;;;;;;20.98;64.86;101638.50;5044053;28;20033;-77
2022/09/06 05:18:03;;;;;;;0.10;0.10;;;;;;;20.99;64.79;101635.72;5045856;28;20021;-76
2022/09/06 05:20:30;;;;;;;0.10;0.10;;;;;;;20.94;64.68;101632.38;5046016;28;20053;-76
2022/09/06 05:22:56;;;;;;;0.17;0.17;;;;;;;20.94;64.81;101627.00;5039129;28;20060;-76
2022/09/06 05:25:22;;;;;;;0.10;0.10;;;;;;;20.93;64.88;101624.41;5042189;28;20022;-76
2022/09/06 05:27:49;;;;;;;0.10;0.10;;;;;;;20.92;64.82;101612.75;5042764;28;20053;-76
2022/09/06 05:30:16;;;;;;;0.10;0.10;;;;;;;20.91;64.71;101618.19;5043174;28;20124;-76
2022/09/06 05:32:43;;;;;;;0.10;0.10;;;;;;;20.89;64.61;101612.91;5042193;28;20017;-76
2022/09/06 05:35:09;;;;;;;0.00;0.00;;;;;;;20.87;64.55;101620.19;5041226;28;20032;-76
2022/09/06 05:37:35;;;;;;;0.10;0.10;;;;;;;20.88;64.76;101618.38;5040687;28;20037;-76
2022/09/06 05:40:01;;;;;;;0.10;0.10;;;;;;;20.87;64.71;101617.47;5042580;28;20067;-77
2022/09/06 05:42:27;;;;;;;0.10;0.10;;;;;;;20.85;64.75;101616.72;5040701;28;20040;-77
2022/09/06 05:44:53;;;;;;;0.10;0.10;;;;;;;20.81;64.47;101618.69;5044176;28;20045;-77
2022/09/06 05:47:19;;;;;;;0.10;0.10;;;;;;;20.79;64.55;101617.03;5034934;28;20034;-76
2022/09/06 05:49:45;;;;;;;0.45;0.45;;;;;;;20.76;64.52;101622.53;5031686;28;20033;-76
2022/09/06 05:52:12;;;;;;;0.00;0.00;;;;;;;20.74;64.86;101609.16;5038362;28;20034;-76
2022/09/06 05:54:38;;;;;;;0.08;0.08;;;;;;;20.72;64.80;101612.91;5039492;28;20049;-77
2022/09/06 05:57:04;;;;;;;0.10;0.10;;;;;;;20.66;64.83;101608.63;5039911;28;20036;-76
2022/09/06 05:59:30;;;;;;;0.10;0.10;;;;;;;20.57;64.68;101614.50;5021913;28;20053;-77
2022/09/06 06:01:57;;;;;;;0.00;0.00;;;;;;;20.52;64.80;101612.91;5026290;28;20523;-75
2022/09/06 06:04:23;;;;;;;1.25;0.40;;;;;;;20.49;64.91;101610.38;5033352;28;20056;-77
2022/09/06 06:06:49;;;;;;;0.10;0.10;;;;;;;20.50;65.08;101606.72;5030854;28;20025;-77
2022/09/06 06:09:16;;;;;;;0.10;0.10;;;;;;;20.52;65.22;101614.72;5027750;28;20033;-78
2022/09/06 06:11:43;;;;;;;0.57;0.57;;;;;;;20.53;65.35;101609.25;5027169;28;20056;-77
2022/09/06 06:14:10;;;;;;;0.10;0.10;;;;;;;20.57;65.25;101609.13;5025130;28;20025;-76
2022/09/06 06:16:38;;;;;;;0.00;0.00;;;;;;;20.58;65.25;101603.66;5023419;28;20449;-76
2022/09/06 06:19:04;;;;;;;0.10;0.10;;;;;;;20.59;65.34;101602.69;5021275;28;20117;-77
2022/09/06 06:21:32;;;;;;;0.10;0.10;;;;;;;20.63;65.22;101598.91;5017139;28;20445;-76
2022/09/06 06:24:01;;;;;;;0.00;0.00;;;;;;;20.68;65.32;101595.97;5027711;28;20033;-76
2022/09/06 06:26:30;;;;;;;0.00;0.00;;;;;;;20.69;65.02;101592.34;5026661;28;20034;-77
2022/09/06 06:29:00;;;;;;;0.10;0.10;;;;;;;20.73;64.92;101590.41;5028061;28;20057;-77
2022/09/06 06:31:27;;;;;;;0.00;0.00;;;;;;;20.74;65.15;101587.63;5023192;28;20723;-76
2022/09/06 06:33:54;;;;;;;0.50;0.50;;;;;;;20.77;65.04;101592.88;5028273;28;20033;-76
2022/09/06 06:36:23;;;;;;;0.10;0.10;;;;;;;20.81;65.17;101591.75;5029916;28;20103;-76
2022/09/06 06:38:51;;;;;;;0.10;0.10;;;;;;;20.85;65.21;101587.09;5029132;28;20033;-76
2022/09/06 06:41:20;;;;;;;0.43;0.43;;;;;;;20.89;65.15;101587.81;5025824;28;20029;-76
2022/09/06 06:43:46;;;;;;;0.13;0.13;;;;;;;20.92;65.30;101576.84;5018947;28;20033;-77
2022/09/06 06:46:15;;;;;;;0.28;0.28;;;;;;;20.97;65.44;101574.78;5026937;28;20036;-77
2022/09/06 06:48:42;;;;;;;0.00;0.00;;;;;;;20.99;65.75;101573.75;5023784;28;20030;-77
2022/09/06 06:51:11;;;;;;;0.43;0.43;;;;;;;21.04;65.63;101575.34;5018342;28;20026;-77
2022/09/06 06:53:37;;;;;;;0.08;0.08;;;;;;;21.09;65.56;101578.69;5032211;28;20029;-77
2022/09/06 06:59:03;;;;;;;0.10;0.10;;;;;;;21.22;65.79;101578.88;5108848;27;20743;-76
2022/09/06 07:01:31;;;;;;;0.10;0.10;;;;;;;21.26;65.68;101586.72;5074458;28;20035;-77
2022/09/06 07:03:57;;;;;;;0.10;0.10;;;;;;;21.30;65.73;101582.91;5073851;28;20028;-77
2022/09/06 07:06:26;;;;;;;0.73;0.73;;;;;;;21.38;65.64;101589.72;5078317;28;20028;-78
2022/09/06 07:08:55;;;;;;;0.15;0.15;;;;;;;21.45;65.28;101586.59;5073367;28;20548;-76
2022/09/06 07:11:21;;;;;;;0.10;0.10;;;;;;;21.52;65.21;101581.78;5076425;28;20123;-74
2022/09/06 07:13:47;;;;;;;0.10;0.10;;;;;;;21.58;65.01;101584.16;5076857;28;20032;-76
2022/09/06 07:18:53;;;;;;;0.10;0.10;;;;;;;21.68;65.73;101586.34;5023756;27;20327;-76
2022/09/06 07:21:25;;;;;;;0.10;0.10;;;;;;;21.74;65.59;101576.06;5007498;28;20034;-75
2022/09/06 07:23:51;;;;;;;0.30;0.30;;;;;;;21.77;65.56;101578.63;5006153;28;20055;-75
2022/09/06 07:26:20;;;;;;;1.58;0.57;;;;;;;21.90;65.19;101576.09;5020619;28;20069;-75
2022/09/06 07:28:47;;;;;;;0.10;0.10;;;;;;;21.93;65.33;101573.22;5011978;28;20034;-75
2022/09/06 07:31:13;;;;;;;0.10;0.10;;;;;;;21.96;65.13;101575.75;5015507;28;20082;-75
2022/09/06 07:33:39;;;;;;;0.10;0.10;;;;;;;22.04;64.48;101574.44;5018125;28;20038;-76
2022/09/06 07:36:07;;;;;;;0.00;0.00;;;;;;;22.05;64.39;101573.50;5013521;28;20487;-81
2022/09/06 07:38:34;;;;;;;0.20;0.20;;;;;;;22.06;64.57;101565.31;5093644;27;20071;-75
2022/09/06 07:41:03;;;;;;;0.00;0.00;;;;;;;22.12;64.73;101570.34;5063682;27;20034;-77
2022/09/06 07:43:31;;;;;;;0.25;0.25;;;;;;;22.19;64.36;101565.47;5028196;28;20029;-78
2022/09/06 07:45:59;;;;;;;0.15;0.15;;;;;;;22.24;64.45;101560.69;5013525;28;20032;-77
2022/09/06 07:48:28;;;;;;;0.00;0.00;;;;;;;22.32;64.57;101551.25;5013635;27;20060;-75
2022/09/06 07:50:54;;;;;;;0.17;0.17;;;;;;;22.42;64.33;101560.59;5033616;27;20021;-76
2022/09/06 07:53:21;;;;;;;0.20;0.20;;;;;;;22.39;64.43;101564.38;5020324;28;20097;-75
2022/09/06 07:55:47;;;;;;;0.17;0.17;;;;;;;22.52;64.15;101560.91;5035768;28;20054;-76
2022/09/06 07:58:13;;;;;;;0.10;0.10;;;;;;;22.56;63.92;101563.34;5030592;28;20117;-76
2022/09/06 08:00:39;;;;;;;0.10;0.10;;;;;;;22.64;63.80;101556.63;5009006;28;20064;-74
2022/09/06 08:03:06;;;;;;;0.22;0.22;;;;;;;22.72;63.52;101557.91;5015476;28;20034;-75
2022/09/06 08:05:32;;;;;;;0.10;0.10;;;;;;;22.84;63.30;101559.00;5007924;28;20514;-76
2022/09/06 08:07:58;;;;;;;0.20;0.20;;;;;;;22.87;62.73;101556.09;5010691;28;20030;-75
2022/09/06 08:10:24;;;;;;;0.10;0.10;;;;;;;22.92;62.83;101554.00;5014115;28;20114;-75
2022/09/06 08:12:53;;;;;;;0.05;0.05;;;;;;;23.02;62.75;101556.16;5009670;28;20037;-76
2022/09/06 08:15:20;;;;;;;0.10;0.10;;;;;;;23.07;63.15;101554.03;5006905;28;20041;-76
2022/09/06 08:17:48;;;;;;;0.10;0.10;;;;;;;23.17;63.07;101552.50;5014782;28;20035;-77
2022/09/06 08:20:14;;;;;;;0.10;0.10;;;;;;;23.32;62.93;101568.75;5011798;28;20048;-75
2022/09/06 08:22:41;;;;;;;0.63;0.63;;;;;;;23.41;62.90;101576.28;5012934;28;20505;-76
2022/09/06 08:25:07;;;;;;;0.08;0.08;;;;;;;23.47;62.24;101573.19;5006652;28;20606;-75
2022/09/06 08:27:33;;;;;;;0.10;0.10;;;;;;;23.56;61.93;101569.91;5014173;28;20403;-76
2022/09/06 08:29:59;;;;;;;0.10;0.10;;;;;;;23.64;62.29;101560.41;5004628;27;20069;-76
2022/09/06 08:32:25;;;;;;;0.20;0.20;;;;;;;23.70;61.79;101560.91;4993599;28;20103;-76
2022/09/06 08:34:51;;;;;;;3.15;1.45;;;;;;;23.84;61.83;101569.94;5008138;28;21149;-76
2022/09/06 08:37:17;;;;;;;0.10;0.10;;;;;;;23.88;61.64;101575.06;5013686;28;20034;-76
2022/09/06 08:39:43;;;;;;;0.20;0.20;;;;;;;23.96;61.57;101571.03;4998859;28;20501;-76
2022/09/06 08:42:11;;;;;;;0.82;0.50;;;;;;;24.01;61.22;101569.78;5019011;28;20108;-76
2022/09/06 08:44:47;;;;;;;0.20;0.20;;;;;;;24.04;60.71;101568.72;4994361;28;20056;-76
2022/09/06 08:47:15;;;;;;;1.50;0.73;;;;;;;24.06;60.34;101566.75;5001242;28;20525;-75
2022/09/06 08:49:44;;;;;;;0.10;0.10;;;;;;;24.05;59.39;101565.00;4999270;28;20130;-76
2022/09/06 09:00:29;;;;;;;0.10;0.10;;;;;;;24.51;59.25;101566.50;5089865;27;20415;-76
2022/09/06 09:03:19;;;;;;;0.10;0.10;;;;;;;24.68;58.29;101554.53;5069049;28;20040;-76
2022/09/06 09:05:50;;;;;;;0.10;0.10;;;;;;;24.67;56.78;101556.41;5067638;28;20068;-77
2022/09/06 09:08:28;;;;;;;0.25;0.25;;;;;;;24.75;57.07;101549.56;5063517;28;20028;-76
2022/09/06 09:16:28;;;;;;;0.10;0.10;;;;;;;25.00;57.07;101559.59;5066169;28;20410;-78
2022/09/06 09:18:58;;;;;;;0.10;0.10;;;;;;;25.06;57.03;101556.44;5062793;28;20119;-78
2022/09/06 09:21:26;;;;;;;0.10;0.10;;;;;;;25.11;56.94;101554.28;5061367;28;20048;-78
2022/09/06 09:23:57;;;;;;;0.50;0.50;;;;;;;25.10;55.21;101557.97;5059750;28;20048;-80
2022/09/06 09:26:27;;;;;;;0.13;0.13;;;;;;;25.20;55.40;101564.47;5047535;28;20524;-79
2022/09/06 09:29:09;;;;;;;0.65;0.65;;;;;;;25.26;54.20;101562.28;5047990;28;20060;-79
2022/09/06 09:31:39;;;;;;;0.38;0.38;;;;;;;25.33;55.11;101564.47;5049050;28;20032;-80
2022/09/06 09:34:10;;;;;;;0.20;0.20;;;;;;;25.39;54.71;101563.19;5050764;28;20115;-78
2022/09/06 09:36:36;;;;;;;0.10;0.10;;;;;;;25.49;54.72;101563.41;5050532;28;20086;-77
2022/09/06 09:39:09;;;;;;;0.10;0.10;;;;;;;25.58;54.20;101559.16;5041489;28;20087;-77
2022/09/06 09:41:39;;;;;;;0.10;0.10;;;;;;;25.66;54.51;101568.47;5047161;28;20504;-79
2022/09/06 09:44:15;;;;;;;0.10;0.10;;;;;;;25.69;53.47;101559.22;5044633;28;20033;-79
2022/09/06 09:46:41;;;;;;;0.10;0.10;;;;;;;25.78;54.61;101555.88;5050582;28;20033;-79
2022/09/06 09:49:11;;;;;;;0.15;0.15;;;;;;;25.86;52.93;101551.69;5049200;28;20033;-79
2022/09/06 09:51:41;;;;;;;0.10;0.10;;;;;;;25.98;53.45;101558.94;5050997;28;20034;-81
2022/09/06 09:54:10;;;;;;;0.60;0.60;;;;;;;26.00;52.80;101557.84;5051762;28;20051;-81
2022/09/06 09:56:42;;;;;;;0.30;0.30;;;;;;;26.13;52.80;101562.38;5052306;28;20041;-81
2022/09/06 10:02:01;;;;;;;0.20;0.20;;;;;;;26.32;52.28;101572.75;5111778;27;1202227;-82
2022/09/06 10:04:50;;;;;;;0.20;0.20;;;;;;;26.52;51.80;101573.94;5120573;27;20032;-82
2022/09/06 10:07:19;;;;;;;0.10;0.10;;;;;;;26.54;51.01;101561.09;5111989;28;20102;-81
2022/09/06 10:10:06;;;;;;;0.50;0.50;;;;;;;26.51;51.30;101566.78;5108057;28;20032;-82
2022/09/06 10:12:37;;;;;;;0.10;0.10;;;;;;;26.56;51.98;101547.41;5103376;28;20425;-81
2022/09/06 10:15:06;;;;;;;0.52;0.40;;;;;;;26.58;51.90;101545.41;5108375;28;20055;-82
2022/09/06 10:17:36;;;;;;;0.10;0.10;;;;;;;26.67;51.24;101554.72;5102297;28;20431;-82
2022/09/06 10:28:26;;;;;;;0.80;0.80;;;;;;;26.89;50.37;101570.25;5136036;27;20372;-82
2022/09/06 10:31:04;;;;;;;1.35;1.25;;;;;;;26.82;49.69;101566.28;5105383;28;20028;-82
2022/09/06 10:33:56;;;;;;;0.88;0.40;;;;;;;26.87;50.45;101578.53;5100485;28;20024;-82
2022/09/06 10:36:28;;;;;;;;;;;;;;;26.99;49.64;101581.28;5113117;28;20028;-82
2022/09/06 10:38:58;;;;;;;;;;;;;;;27.00;49.52;101567.56;5114177;28;20343;-82
2022/09/06 10:41:43;;;;;;;1.00;0.90;;;;;;;26.99;49.45;101565.81;5111967;28;19930;-80
2022/09/06 10:46:48;;;;;;;0.40;0.40;;;;;;;27.11;50.34;101573.00;5066972;28;20490;-77
2022/09/06 10:49:18;;;;;;;0.20;0.20;;;;;;;27.11;49.67;101575.75;5051532;28;20025;-77
2022/09/06 10:51:53;;;;;;;1.20;1.15;;;;;;;27.12;49.75;101580.19;5050288;28;20124;-77
2022/09/06 10:54:22;;;;;;;0.52;0.52;;;;;;;27.09;50.13;101585.00;5050666;28;20120;-77
2022/09/06 10:59:47;;;;;;;0.47;0.25;;;;;;;27.24;49.09;101593.81;5088663;27;20126;-80
2022/09/06 11:02:38;;;;;;;2.97;1.60;;;;;;;27.32;48.53;101587.78;5080523;28;20032;-79
2022/09/06 11:05:09;;;;;;;0.30;0.30;;;;;;;27.38;49.79;101590.03;5071585;28;20031;-81
2022/09/06 11:07:42;;;;;;;0.10;0.10;;;;;;;27.34;49.36;101586.66;5064902;28;20024;-82
2022/09/06 11:10:25;;;;;;;0.38;0.38;;;;;;;27.42;49.07;101584.22;5070330;28;20039;-82
2022/09/06 11:13:08;;;;;;;0.10;0.10;;;;;;;27.60;48.97;101583.72;5066727;28;20296;-80
2022/09/06 11:21:41;;;;;;;0.93;0.93;;;;;;;27.93;47.11;101581.97;5064234;27;20437;-76
2022/09/06 11:24:13;;;;;;;0.10;0.10;;;;;;;28.06;47.59;101577.28;5053991;28;20037;-76
2022/09/06 11:29:26;;;;;;;0.17;0.17;;;;;;;28.24;48.58;101584.91;5076485;27;20949;-76
2022/09/06 11:31:56;;;;;;;0.73;0.73;;;;;;;28.24;46.66;101595.81;5071226;28;20120;-75
2022/09/06 11:34:25;;;;;;;0.60;0.60;;;;;;;28.29;46.69;101588.09;5069423;28;20115;-76
2022/09/06 11:36:56;;;;;;;0.55;0.55;;;;;;;28.22;47.24;101592.34;5072867;28;20032;-76
2022/09/06 11:39:28;;;;;;;3.00;0.40;;;;;;;28.24;47.33;101590.34;5076060;28;20028;-76
2022/09/06 11:41:54;;;;;;;0.52;0.52;;;;;;;28.15;47.24;101600.16;5071188;28;20412;-76
2022/09/06 11:47:43;;;;;;;2.92;0.98;;;;;;;28.31;47.17;101580.66;5095550;27;20359;-78
2022/09/06 11:50:46;;;;;;;0.00;0.00;;;;;;;28.58;46.88;101582.03;5087917;28;20062;-78
2022/09/06 11:53:16;;;;;;;;;;;;;;;28.76;45.85;101586.94;5086665;28;20028;-78
2022/09/06 11:55:47;;;;;;;0.20;0.20;;;;;;;28.73;46.23;101594.38;5090370;28;19912;-78
2022/09/06 12:07:08;;;;;;;0.10;0.10;;;;;;;28.95;44.28;101583.50;5089699;27;20401;-78
2022/09/06 12:09:38;;;;;;;0.10;0.10;;;;;;;28.91;44.72;101588.34;5084374;28;20032;-78
2022/09/06 12:12:04;;;;;;;0.08;0.08;;;;;;;29.09;45.06;101601.41;5084793;28;20454;-78
2022/09/06 12:14:47;;;;;;;0.20;0.20;;;;;;;29.27;44.07;101582.53;5089156;28;20082;-78
2022/09/06 12:20:05;;;;;;;0.65;0.65;;;;;;;29.34;42.56;101590.06;5093196;27;20231;-77
2022/09/06 12:28:23;;;;;;;1.73;1.65;;;;;;;29.49;43.30;101562.44;5069712;28;20360;-78
2022/09/06 12:30:50;;;;;;;0.20;0.20;;;;;;;29.41;42.50;101559.50;5066474;28;20063;-78
2022/09/06 12:33:30;;;;;;;1.63;0.32;;;;;;;29.58;41.97;101556.13;5070057;28;20032;-77
2022/09/06 12:36:15;;;;;;;0.20;0.20;;;;;;;29.72;41.38;101554.91;5068852;28;20029;-78
2022/09/06 12:41:38;;;;;;;0.80;0.73;;;;;;;29.68;41.11;101551.59;5059113;28;20404;-78
2022/09/06 12:44:06;;;;;;;0.10;0.10;;;;;;;29.69;40.95;101555.16;5057209;28;20086;-79
2022/09/06 12:46:34;;;;;;;0.10;0.10;;;;;;;29.80;43.12;101555.03;5052290;28;20029;-79
2022/09/06 12:49:06;;;;;;;0.10;0.10;;;;;;;29.70;39.42;101552.28;5049236;28;20033;-79
2022/09/06 12:51:33;;;;;;;0.38;0.38;;;;;;;29.85;41.33;101544.56;5052909;28;20029;-79
2022/09/06 12:54:02;;;;;;;0.20;0.20;;;;;;;29.97;41.35;101541.75;5049243;28;20054;-79
2022/09/06 12:56:33;;;;;;;0.00;0.00;;;;;;;30.11;40.52;101526.81;5048695;28;20021;-78
2022/09/06 13:02:03;;;;;;;0.10;0.10;;;;;;;30.39;36.61;101532.44;5130909;27;20451;-76
2022/09/06 13:07:11;;;;;;;0.10;0.10;;;;;;;30.56;39.93;101526.25;5014862;28;20432;-75
2022/09/06 13:09:42;;;;;;;0.13;0.13;;;;;;;30.70;38.94;101529.56;5018562;28;20105;-76
2022/09/06 13:12:20;;;;;;;0.10;0.10;;;;;;;30.77;38.85;101522.50;5010142;28;20067;-76
2022/09/06 13:14:50;;;;;;;0.55;0.50;;;;;;;30.82;38.83;101514.72;5012170;28;20057;-75
2022/09/06 13:17:27;;;;;;;0.30;0.30;;;;;;;30.93;39.57;101517.28;5009889;28;20026;-78
2022/09/06 13:19:54;;;;;;;0.13;0.13;;;;;;;30.94;36.71;101512.66;5004470;28;20033;-76
2022/09/06 13:22:42;;;;;;;0.05;0.05;;;;;;;31.09;39.50;101515.81;5017851;28;20126;-76